Time;durP1;ratioP1;P1;durP2;ratioP2;P2;SDS_P1;SDS_P2;PMS_P1;PMS_P2;Temp;Humidity;BMP_temperature;BMP_pressure;BME280_temperature;BME280_humidity;BME280_pressure;Samples;Min_cycle;Max_cycle;Signal;HPM_P1;HPM_P2
2023/11/01 00:02:10;;;;;;;1.40;0.90;;;16.40;60.90;;;;;;5059194;28;20655;-47
2023/11/01 00:04:36;;;;;;;1.70;1.30;;;16.40;60.80;;;;;;5065048;28;20211;-48
2023/11/01 00:07:01;;;;;;;1.43;1.10;;;16.20;60.90;;;;;;5067192;28;20552;-50
2023/11/01 00:09:27;;;;;;;2.57;1.27;;;16.20;60.80;;;;;;5057292;28;20256;-49
2023/11/01 00:11:52;;;;;;;2.60;1.03;;;16.00;61.50;;;;;;5055865;28;20271;-49
2023/11/01 00:14:18;;;;;;;4.17;1.27;;;16.10;61.20;;;;;;5066576;28;20183;-51
2023/11/01 00:16:43;;;;;;;1.00;0.93;;;16.20;61.10;;;;;;5059200;28;20185;-49
2023/11/01 00:19:09;;;;;;;2.50;1.50;;;16.20;60.70;;;;;;5055105;28;20228;-50
2023/11/01 00:21:34;;;;;;;1.40;1.30;;;16.20;60.40;;;;;;5064670;28;20244;-49
2023/11/01 00:24:00;;;;;;;2.10;1.40;;;16.30;60.50;;;;;;5067970;28;20215;-50
2023/11/01 00:26:26;;;;;;;1.13;1.03;;;16.40;60.40;;;;;;5067669;28;20199;-49
2023/11/01 00:28:51;;;;;;;1.40;1.10;;;16.40;60.40;;;;;;5070931;28;20951;-48
2023/11/01 00:31:17;;;;;;;1.40;1.30;;;16.40;60.20;;;;;;5070701;28;20546;-49
2023/11/01 00:33:43;;;;;;;1.90;1.07;;;16.40;60.20;;;;;;5070562;28;20177;-49
2023/11/01 00:36:09;;;;;;;2.93;1.33;;;16.20;60.10;;;;;;5070546;28;20314;-50
2023/11/01 00:38:35;;;;;;;2.00;1.30;;;16.30;60.30;;;;;;5064643;28;20450;-50
2023/11/01 00:41:04;;;;;;;2.73;1.37;;;16.40;60.20;;;;;;5069515;28;20438;-48
2023/11/01 00:43:30;;;;;;;2.07;1.30;;;16.50;60.00;;;;;;5069770;28;20441;-50
2023/11/01 00:45:56;;;;;;;3.53;1.30;;;16.60;59.90;;;;;;5068593;28;20441;-49
2023/11/01 00:48:22;;;;;;;2.20;1.30;;;16.60;59.80;;;;;;5061136;28;20454;-50
2023/11/01 00:50:48;;;;;;;1.33;1.23;;;16.60;59.50;;;;;;5060125;28;20203;-50
2023/11/01 00:53:14;;;;;;;4.10;1.20;;;16.50;59.70;;;;;;5066732;28;20198;-51
2023/11/01 00:55:39;;;;;;;4.77;1.20;;;16.50;59.80;;;;;;5060409;28;20389;-50
2023/11/01 00:58:05;;;;;;;2.10;1.10;;;16.30;60.10;;;;;;5056787;28;20262;-51
2023/11/01 01:00:31;;;;;;;5.17;1.47;;;16.40;60.00;;;;;;5067990;28;20187;-47
2023/11/01 01:02:56;;;;;;;3.10;1.20;;;16.40;60.10;;;;;;5069921;28;20995;-50
2023/11/01 01:05:23;;;;;;;1.70;1.30;;;16.50;60.10;;;;;;5069686;28;20254;-47
2023/11/01 01:07:49;;;;;;;1.57;1.10;;;16.20;60.10;;;;;;5067426;28;20191;-48
2023/11/01 01:10:15;;;;;;;3.33;1.30;;;16.20;60.60;;;;;;5068417;28;20914;-51
2023/11/01 01:12:41;;;;;;;1.93;1.03;;;16.30;60.70;;;;;;5065418;28;20822;-48
2023/11/01 01:15:07;;;;;;;2.40;1.00;;;16.30;60.30;;;;;;5069296;28;20452;-48
2023/11/01 01:17:32;;;;;;;5.00;1.20;;;16.40;60.30;;;;;;5068392;28;20188;-50
2023/11/01 01:19:58;;;;;;;2.77;1.00;;;16.40;60.20;;;;;;5057598;28;20255;-49
2023/11/01 01:22:24;;;;;;;1.53;1.43;;;16.40;60.00;;;;;;5060699;28;20232;-49
2023/11/01 01:24:49;;;;;;;1.53;1.33;;;16.50;60.60;;;;;;5065068;28;20278;-48
2023/11/01 01:27:15;;;;;;;1.23;1.10;;;16.40;59.80;;;;;;5064026;28;20207;-50
2023/11/01 01:29:41;;;;;;;1.63;1.53;;;16.30;60.30;;;;;;5063518;28;20212;-48
2023/11/01 01:32:06;;;;;;;3.83;1.40;;;16.20;60.00;;;;;;5057433;28;20185;-48
2023/11/01 01:34:32;;;;;;;4.23;1.60;;;16.30;60.00;;;;;;5059508;28;20211;-51
2023/11/01 01:36:57;;;;;;;1.90;1.13;;;16.20;60.20;;;;;;5057720;28;20672;-49
2023/11/01 01:39:23;;;;;;;5.40;1.30;;;16.20;60.20;;;;;;5058762;28;20204;-50
2023/11/01 01:41:49;;;;;;;1.83;1.30;;;16.10;59.90;;;;;;5059709;28;20184;-49
2023/11/01 01:44:14;;;;;;;1.27;1.17;;;15.90;60.90;;;;;;5065425;28;20275;-49
2023/11/01 01:46:41;;;;;;;4.10;1.60;;;15.80;61.40;;;;;;5067378;28;20620;-49
2023/11/01 01:49:07;;;;;;;5.03;1.90;;;15.80;61.60;;;;;;5060082;28;20210;-50
2023/11/01 01:51:34;;;;;;;4.60;1.90;;;15.60;61.80;;;;;;5056811;28;20521;-49
2023/11/01 01:54:01;;;;;;;1.23;1.13;;;15.60;62.20;;;;;;5059252;28;20973;-49
2023/11/01 01:56:27;;;;;;;1.03;1.03;;;15.80;61.90;;;;;;5059941;28;20529;-49
2023/11/01 01:58:53;;;;;;;5.63;1.63;;;15.80;61.70;;;;;;5061941;28;20454;-50
2023/11/01 02:01:19;;;;;;;1.77;1.20;;;15.80;61.70;;;;;;5063732;28;20442;-49
2023/11/01 02:03:45;;;;;;;2.57;1.20;;;15.80;61.70;;;;;;5071342;28;20977;-54
2023/11/01 02:06:11;;;;;;;3.73;1.20;;;15.70;63.00;;;;;;5067609;28;20457;-49
2023/11/01 02:08:37;;;;;;;2.37;1.20;;;15.60;62.30;;;;;;5066737;28;20207;-50
2023/11/01 02:11:04;;;;;;;2.73;1.27;;;15.60;62.50;;;;;;5059307;28;20180;-48
2023/11/01 02:13:29;;;;;;;3.63;1.30;;;15.70;62.30;;;;;;5060513;28;20467;-49
2023/11/01 02:15:55;;;;;;;1.93;1.33;;;15.80;61.80;;;;;;5062978;28;20434;-48
2023/11/01 02:18:21;;;;;;;5.40;2.00;;;15.50;62.50;;;;;;5067129;28;20642;-50
2023/11/01 02:20:48;;;;;;;2.70;1.10;;;15.60;62.20;;;;;;5068501;28;20188;-50
2023/11/01 02:23:15;;;;;;;1.80;1.30;;;15.70;62.00;;;;;;5062946;28;20179;-50
2023/11/01 02:25:42;;;;;;;2.00;1.10;;;15.60;62.40;;;;;;5056571;28;20857;-48
2023/11/01 02:28:09;;;;;;;5.13;1.60;;;15.60;62.20;;;;;;5055368;28;20439;-50
2023/11/01 02:30:35;;;;;;;2.23;1.77;;;15.60;61.90;;;;;;5057375;28;20924;-48
2023/11/01 02:33:01;;;;;;;6.83;1.60;;;15.50;62.70;;;;;;5060550;28;20469;-52
2023/11/01 02:35:26;;;;;;;4.37;1.40;;;15.60;62.40;;;;;;5058847;28;20222;-51
2023/11/01 02:37:52;;;;;;;6.30;1.30;;;15.60;62.40;;;;;;5057270;28;20637;-46
2023/11/01 02:40:18;;;;;;;3.23;1.50;;;15.70;61.90;;;;;;5054408;28;20188;-49
2023/11/01 02:42:46;;;;;;;3.87;1.50;;;15.70;62.10;;;;;;5069991;28;20433;-47
2023/11/01 02:45:12;;;;;;;1.73;1.20;;;15.70;61.80;;;;;;5065825;28;21214;-50
2023/11/01 02:47:39;;;;;;;2.00;1.40;;;15.60;62.10;;;;;;5067882;28;20418;-51
2023/11/01 02:50:06;;;;;;;3.83;1.30;;;15.70;61.80;;;;;;5065925;28;20489;-49
2023/11/01 02:52:35;;;;;;;4.13;1.50;;;15.70;61.30;;;;;;5071189;28;20482;-49
2023/11/01 02:55:05;;;;;;;3.30;1.20;;;15.70;61.30;;;;;;5065063;28;20457;-51
2023/11/01 02:57:32;;;;;;;1.60;1.20;;;15.70;61.10;;;;;;5059196;28;20857;-52
2023/11/01 03:00:00;;;;;;;2.53;1.00;;;15.40;62.00;;;;;;5064204;28;20487;-49
2023/11/01 03:02:26;;;;;;;5.87;1.50;;;15.30;62.60;;;;;;5061708;28;22240;-51
2023/11/01 03:04:52;;;;;;;1.70;1.60;;;15.10;63.30;;;;;;5065085;28;20836;-48
2023/11/01 03:07:18;;;;;;;2.70;1.73;;;15.10;63.60;;;;;;5063243;28;20449;-51
2023/11/01 03:09:44;;;;;;;2.50;1.30;;;15.10;63.90;;;;;;5063796;28;20211;-48
2023/11/01 03:12:09;;;;;;;4.70;1.37;;;15.20;63.70;;;;;;5061852;28;20191;-49
2023/11/01 03:14:38;;;;;;;1.10;1.00;;;15.30;62.90;;;;;;5063753;28;20185;-48
2023/11/01 03:17:05;;;;;;;2.40;1.73;;;15.50;62.50;;;;;;5062095;28;20212;-49
2023/11/01 03:19:30;;;;;;;2.53;1.23;;;15.10;62.80;;;;;;5066771;28;20530;-48
2023/11/01 03:21:56;;;;;;;1.67;1.20;;;14.80;64.20;;;;;;5064840;28;20492;-48
2023/11/01 03:24:21;;;;;;;2.07;1.20;;;15.00;64.40;;;;;;5066015;28;20223;-50
2023/11/01 03:26:47;;;;;;;2.70;1.40;;;14.90;64.30;;;;;;5062903;28;20256;-49
2023/11/01 03:29:13;;;;;;;1.80;1.40;;;15.00;64.10;;;;;;5061910;28;20199;-49
2023/11/01 03:31:38;;;;;;;3.00;1.57;;;15.30;63.30;;;;;;5060921;28;20184;-51
2023/11/01 03:34:04;;;;;;;2.20;1.50;;;15.40;62.90;;;;;;5063289;28;20599;-48
2023/11/01 03:36:30;;;;;;;2.93;1.50;;;15.40;62.60;;;;;;5064128;28;20233;-50
2023/11/01 03:38:55;;;;;;;1.93;1.00;;;15.30;62.70;;;;;;5064773;28;20208;-48
2023/11/01 03:41:21;;;;;;;1.57;1.30;;;15.30;63.20;;;;;;5067769;28;21074;-50
2023/11/01 03:43:47;;;;;;;5.10;2.17;;;15.40;62.90;;;;;;5063857;28;20222;-48
2023/11/01 03:46:13;;;;;;;1.80;1.50;;;15.30;62.80;;;;;;5056005;28;20176;-50
2023/11/01 03:48:39;;;;;;;4.83;1.63;;;15.40;62.80;;;;;;5064173;28;20487;-47
2023/11/01 03:51:04;;;;;;;1.53;1.00;;;15.40;62.80;;;;;;5064708;28;20232;-48
2023/11/01 03:53:30;;;;;;;3.63;1.33;;;15.30;62.90;;;;;;5067977;28;20196;-49
2023/11/01 03:55:56;;;;;;;2.30;1.33;;;15.20;63.60;;;;;;5063219;28;20267;-49
2023/11/01 03:58:22;;;;;;;1.33;1.10;;;15.20;63.40;;;;;;5059984;28;20208;-49
2023/11/01 04:00:48;;;;;;;2.03;1.00;;;15.40;63.10;;;;;;5066888;28;20533;-52
2023/11/01 04:03:14;;;;;;;1.93;1.17;;;15.40;62.60;;;;;;5070102;28;20215;-50
2023/11/01 04:05:39;;;;;;;3.40;1.37;;;15.30;62.90;;;;;;5067107;28;20887;-51
2023/11/01 04:08:05;;;;;;;1.93;1.20;;;15.30;62.70;;;;;;5067058;28;20227;-52
2023/11/01 04:10:31;;;;;;;1.60;1.20;;;15.40;62.50;;;;;;5064185;28;20566;-49
2023/11/01 04:12:56;;;;;;;5.20;1.20;;;15.50;61.90;;;;;;5070656;28;20184;-49
2023/11/01 04:15:22;;;;;;;1.63;1.33;;;15.50;61.20;;;;;;5066403;28;21021;-49
2023/11/01 04:17:48;;;;;;;2.20;1.10;;;15.40;61.30;;;;;;5064929;28;20602;-50
2023/11/01 04:20:14;;;;;;;3.83;1.60;;;15.40;61.50;;;;;;5071084;28;20714;-49
2023/11/01 04:22:40;;;;;;;1.90;1.33;;;15.30;61.90;;;;;;5068363;28;20488;-50
2023/11/01 04:25:06;;;;;;;1.50;1.13;;;15.30;61.80;;;;;;5063857;28;20212;-49
2023/11/01 04:27:41;;;;;;;2.50;1.40;;;15.30;61.50;;;;;;5072616;28;20180;-49
2023/11/01 04:30:11;;;;;;;6.00;1.53;;;15.20;61.80;;;;;;5070717;28;21022;-49
2023/11/01 04:32:37;;;;;;;3.40;1.50;;;15.00;62.00;;;;;;5061654;28;20433;-51
2023/11/01 04:35:03;;;;;;;7.13;1.33;;;14.90;62.20;;;;;;5066830;28;20422;-48
2023/11/01 04:37:30;;;;;;;2.10;1.03;;;14.70;62.70;;;;;;5060950;28;20968;-49
2023/11/01 04:39:56;;;;;;;3.07;1.13;;;14.80;62.80;;;;;;5063894;28;20517;-48
2023/11/01 04:42:22;;;;;;;1.03;0.93;;;14.90;62.90;;;;;;5063533;28;20430;-53
2023/11/01 04:44:48;;;;;;;1.97;1.20;;;14.60;63.10;;;;;;5065623;28;20496;-49
2023/11/01 04:47:13;;;;;;;1.73;1.20;;;14.70;63.20;;;;;;5059970;28;20937;-51
2023/11/01 04:49:39;;;;;;;1.87;1.17;;;15.00;62.40;;;;;;5066139;28;20209;-50
2023/11/01 04:52:06;;;;;;;2.37;1.40;;;15.20;61.70;;;;;;5060007;28;20223;-50
2023/11/01 04:54:33;;;;;;;2.60;1.40;;;15.20;61.70;;;;;;5060800;28;20226;-49
2023/11/01 04:57:00;;;;;;;1.80;1.13;;;15.30;61.80;;;;;;5056750;28;20494;-50
2023/11/01 04:59:30;;;;;;;2.27;1.10;;;15.20;61.70;;;;;;5067292;28;20462;-48
2023/11/01 05:01:56;;;;;;;6.50;1.63;;;14.90;62.30;;;;;;5065205;28;20540;-48
2023/11/01 05:04:22;;;;;;;9.20;1.90;;;14.60;63.70;;;;;;5064049;28;20473;-50
2023/11/01 05:06:47;;;;;;;1.30;1.17;;;14.40;64.90;;;;;;5062702;28;20492;-51
2023/11/01 05:09:13;;;;;;;2.90;1.50;;;14.30;66.20;;;;;;5069756;28;20208;-52
2023/11/01 05:11:39;;;;;;;3.93;1.40;;;14.30;66.70;;;;;;5058567;28;20196;-50
2023/11/01 05:14:05;;;;;;;3.13;1.20;;;14.40;66.20;;;;;;5065969;28;20867;-50
2023/11/01 05:16:30;;;;;;;2.50;1.63;;;14.60;65.40;;;;;;5064507;28;20438;-49
2023/11/01 05:18:56;;;;;;;1.40;1.30;;;14.60;64.70;;;;;;5068919;28;20207;-47
2023/11/01 05:21:21;;;;;;;2.00;1.30;;;14.50;65.00;;;;;;5065545;28;20188;-50
2023/11/01 05:23:47;;;;;;;2.70;1.50;;;14.60;64.90;;;;;;5069321;28;20180;-48
2023/11/01 05:26:16;;;;;;;3.50;1.40;;;14.70;64.70;;;;;;5066709;28;20179;-50
2023/11/01 05:28:42;;;;;;;5.40;1.53;;;14.50;64.40;;;;;;5065057;28;20263;-49
2023/11/01 05:31:09;;;;;;;3.00;1.40;;;14.50;64.90;;;;;;5064650;28;20430;-51
2023/11/01 05:33:34;;;;;;;2.77;1.60;;;14.40;65.10;;;;;;5067341;28;20446;-48
2023/11/01 05:36:06;;;;;;;1.90;1.30;;;14.40;65.20;;;;;;5054015;28;20822;-50
2023/11/01 05:38:32;;;;;;;4.97;1.93;;;14.40;65.00;;;;;;5061709;28;20219;-47
2023/11/01 05:40:57;;;;;;;1.47;1.37;;;14.40;65.10;;;;;;5066303;28;20450;-48
2023/11/01 05:43:23;;;;;;;1.43;1.33;;;14.50;64.90;;;;;;5068013;28;21054;-50
2023/11/01 05:45:49;;;;;;;2.57;1.77;;;14.70;64.80;;;;;;5065094;28;20307;-50
2023/11/01 05:48:14;;;;;;;3.53;1.80;;;14.80;64.20;;;;;;5067110;28;20231;-50
2023/11/01 05:50:43;;;;;;;2.67;2.00;;;14.90;63.80;;;;;;5065983;28;20184;-50
2023/11/01 05:53:10;;;;;;;3.20;1.50;;;14.80;63.40;;;;;;5027903;28;1084581;-49
2023/11/01 05:55:37;;;;;;;2.07;1.70;;;14.90;63.50;;;;;;5065349;28;20496;-50
2023/11/01 05:58:07;;;;;;;3.10;2.17;;;14.90;63.40;;;;;;5063388;28;20446;-46
2023/11/01 06:00:33;;;;;;;1.90;1.50;;;14.90;63.70;;;;;;5062250;28;20433;-49
2023/11/01 06:02:59;;;;;;;1.67;1.50;;;14.90;63.60;;;;;;5067638;28;20452;-49
2023/11/01 06:05:24;;;;;;;2.83;1.63;;;14.90;63.40;;;;;;5064856;28;20473;-52
2023/11/01 06:07:51;;;;;;;6.00;1.90;;;15.00;63.20;;;;;;5064003;28;20183;-50
2023/11/01 06:10:17;;;;;;;2.90;1.50;;;15.00;62.90;;;;;;5057351;28;20207;-49
2023/11/01 06:12:42;;;;;;;1.63;1.53;;;14.90;62.70;;;;;;5061968;28;20446;-49
2023/11/01 06:15:10;;;;;;;1.80;1.33;;;14.90;62.70;;;;;;5069297;28;20451;-50
2023/11/01 06:17:37;;;;;;;2.53;1.60;;;14.80;62.80;;;;;;5057997;28;20172;-52
2023/11/01 06:20:05;;;;;;;2.53;1.50;;;14.80;63.00;;;;;;5060066;28;20511;-52
2023/11/01 06:22:31;;;;;;;4.33;2.03;;;14.70;63.40;;;;;;5065399;28;20445;-49
2023/11/01 06:24:57;;;;;;;1.93;1.57;;;14.60;63.70;;;;;;5060301;28;20479;-48
2023/11/01 06:27:23;;;;;;;5.80;1.67;;;14.70;63.70;;;;;;5068632;28;20428;-48
2023/11/01 06:29:49;;;;;;;2.47;1.57;;;14.80;64.30;;;;;;5068970;28;20430;-50
2023/11/01 06:32:14;;;;;;;3.23;1.50;;;14.90;63.90;;;;;;5064567;28;20196;-50
2023/11/01 06:34:40;;;;;;;3.30;1.90;;;15.00;63.70;;;;;;5064756;28;20188;-53
2023/11/01 06:37:06;;;;;;;2.10;1.40;;;15.00;64.60;;;;;;5056950;28;20187;-49
2023/11/01 06:39:31;;;;;;;2.90;1.63;;;15.20;64.60;;;;;;5064416;28;20235;-49
2023/11/01 06:41:57;;;;;;;2.67;1.70;;;15.70;63.70;;;;;;5068494;28;20422;-48
2023/11/01 06:44:24;;;;;;;2.03;1.50;;;16.30;62.00;;;;;;5068974;28;20289;-48
2023/11/01 06:46:49;;;;;;;2.83;1.40;;;16.90;59.60;;;;;;5058181;28;20655;-51
2023/11/01 06:49:16;;;;;;;3.63;2.00;;;17.40;57.20;;;;;;5060593;28;20454;-49
2023/11/01 06:51:41;;;;;;;3.00;2.03;;;17.80;56.40;;;;;;5062644;28;20673;-50
2023/11/01 06:54:07;;;;;;;4.03;2.10;;;18.20;55.40;;;;;;5061921;28;20462;-49
2023/11/01 06:56:33;;;;;;;3.77;2.00;;;18.50;55.00;;;;;;5065159;28;20192;-50
2023/11/01 06:58:58;;;;;;;2.10;1.90;;;18.70;54.50;;;;;;5068270;28;20206;-53
2023/11/01 07:01:24;;;;;;;3.03;2.10;;;18.80;54.40;;;;;;5065481;28;20188;-54
2023/11/01 07:03:50;;;;;;;2.03;1.30;;;18.60;53.60;;;;;;5063335;28;20184;-49
2023/11/01 07:06:15;;;;;;;7.17;2.00;;;18.60;54.10;;;;;;5066272;28;20188;-49
2023/11/01 07:08:44;;;;;;;4.57;1.83;;;18.60;54.10;;;;;;5066384;28;20239;-53
2023/11/01 07:11:10;;;;;;;3.73;1.77;;;18.50;54.00;;;;;;5064174;28;20196;-47
2023/11/01 07:13:36;;;;;;;5.10;2.60;;;18.50;54.00;;;;;;5068446;28;20442;-53
2023/11/01 07:16:04;;;;;;;3.43;2.10;;;18.40;54.20;;;;;;5064525;28;20446;-51
2023/11/01 07:18:29;;;;;;;1.90;1.70;;;18.20;54.20;;;;;;5062431;28;20216;-52
2023/11/01 07:20:55;;;;;;;1.80;1.70;;;18.20;54.30;;;;;;5065559;28;20438;-52
2023/11/01 07:23:20;;;;;;;2.70;1.40;;;18.10;54.50;;;;;;5062288;28;20222;-51
2023/11/01 07:25:46;;;;;;;2.20;1.90;;;18.00;54.80;;;;;;5065351;28;20223;-53
2023/11/01 07:28:12;;;;;;;3.27;2.00;;;17.80;54.90;;;;;;5065558;28;20202;-48
2023/11/01 07:30:37;;;;;;;5.70;2.30;;;17.60;55.50;;;;;;5060056;28;20214;-50
2023/11/01 07:33:03;;;;;;;2.57;2.00;;;17.40;56.40;;;;;;5062901;28;20187;-52
2023/11/01 07:35:28;;;;;;;2.50;2.20;;;17.40;57.10;;;;;;5065688;28;20195;-51
2023/11/01 07:37:54;;;;;;;3.60;2.27;;;17.40;57.30;;;;;;5061434;28;20249;-51
2023/11/01 07:40:19;;;;;;;7.90;2.20;;;17.50;57.70;;;;;;5053647;28;20184;-53
2023/11/01 07:42:46;;;;;;;5.50;2.73;;;17.60;57.60;;;;;;5065665;28;20184;-53
2023/11/01 07:45:12;;;;;;;5.20;2.80;;;17.70;57.20;;;;;;5063168;28;20219;-54
2023/11/01 07:47:38;;;;;;;7.13;2.63;;;17.70;57.20;;;;;;5059035;28;20442;-51
2023/11/01 07:50:05;;;;;;;4.30;2.03;;;17.70;57.00;;;;;;5063510;28;20231;-50
2023/11/01 07:52:31;;;;;;;2.10;1.90;;;17.80;57.00;;;;;;5063827;28;20438;-52
2023/11/01 07:54:56;;;;;;;6.23;2.20;;;17.70;57.10;;;;;;5061113;28;20519;-51
2023/11/01 07:57:22;;;;;;;4.07;1.73;;;17.70;56.90;;;;;;5066383;28;20426;-54
2023/11/01 07:59:48;;;;;;;2.83;2.60;;;17.60;57.80;;;;;;5059191;28;20211;-50
2023/11/01 08:02:14;;;;;;;2.73;2.03;;;17.70;57.40;;;;;;5065858;28;20180;-52
2023/11/01 08:04:40;;;;;;;2.40;2.20;;;17.70;57.40;;;;;;5062802;28;20469;-50
2023/11/01 08:07:05;;;;;;;2.03;1.70;;;17.70;57.80;;;;;;5063220;28;20179;-51
2023/11/01 08:09:31;;;;;;;3.70;2.50;;;17.60;57.80;;;;;;5062316;28;20219;-49
2023/11/01 08:11:57;;;;;;;4.17;2.10;;;17.70;58.20;;;;;;5065908;28;20184;-52
2023/11/01 08:14:22;;;;;;;5.73;1.90;;;17.70;58.40;;;;;;5066581;28;20180;-49
2023/11/01 08:16:48;;;;;;;1.80;1.70;;;17.60;58.40;;;;;;5064376;28;20226;-52
2023/11/01 08:19:15;;;;;;;3.20;1.70;;;17.60;57.90;;;;;;5068424;28;20671;-54
2023/11/01 08:21:41;;;;;;;4.20;2.00;;;17.50;58.40;;;;;;5066403;28;20203;-53
2023/11/01 08:24:07;;;;;;;3.40;1.87;;;17.50;58.20;;;;;;5067243;28;20477;-51
2023/11/01 08:26:32;;;;;;;4.43;2.10;;;17.40;58.50;;;;;;5065170;28;20513;-49
2023/11/01 08:28:58;;;;;;;2.93;1.40;;;17.30;58.00;;;;;;5067876;28;20670;-51
2023/11/01 08:31:23;;;;;;;4.77;1.70;;;17.00;58.30;;;;;;5065757;28;21075;-52
2023/11/01 08:33:49;;;;;;;3.37;2.00;;;17.20;59.00;;;;;;5068232;28;20559;-53
2023/11/01 08:36:14;;;;;;;2.60;1.53;;;17.50;58.60;;;;;;5066592;28;20199;-50
2023/11/01 08:38:40;;;;;;;1.90;1.63;;;17.60;58.80;;;;;;5067492;28;20286;-52
2023/11/01 08:41:06;;;;;;;2.40;1.40;;;17.50;57.80;;;;;;5066488;28;20191;-55
2023/11/01 08:43:32;;;;;;;2.67;1.63;;;17.50;58.60;;;;;;5067226;28;20195;-53
2023/11/01 08:45:58;;;;;;;3.40;1.67;;;17.50;58.30;;;;;;5065597;28;20710;-49
2023/11/01 08:48:23;;;;;;;3.27;1.70;;;17.70;58.00;;;;;;5069628;28;20438;-55
2023/11/01 08:50:49;;;;;;;2.53;1.80;;;17.80;58.00;;;;;;5069570;28;20184;-51
2023/11/01 08:53:15;;;;;;;4.87;1.70;;;17.80;58.20;;;;;;5074411;28;20180;-48
2023/11/01 08:55:40;;;;;;;2.50;2.27;;;17.70;57.50;;;;;;5070729;28;20190;-52
2023/11/01 08:58:06;;;;;;;4.50;1.80;;;17.90;57.40;;;;;;5070647;28;20501;-53
2023/11/01 09:00:32;;;;;;;1.70;1.60;;;17.90;57.40;;;;;;5069079;28;20701;-51
2023/11/01 09:02:57;;;;;;;3.53;1.60;;;18.00;56.70;;;;;;5070552;28;20176;-52
2023/11/01 09:05:23;;;;;;;1.90;1.70;;;18.10;56.90;;;;;;5070819;28;20212;-52
2023/11/01 09:07:48;;;;;;;2.17;1.63;;;18.10;56.50;;;;;;5067565;28;20267;-53
2023/11/01 09:10:14;;;;;;;3.53;1.60;;;17.90;56.80;;;;;;5070620;28;20998;-53
2023/11/01 09:12:40;;;;;;;2.57;1.43;;;17.70;56.70;;;;;;5070886;28;20682;-53
2023/11/01 09:15:06;;;;;;;6.27;1.80;;;17.80;57.10;;;;;;5069698;28;20183;-54
2023/11/01 09:17:31;;;;;;;2.50;1.40;;;18.00;56.90;;;;;;5066790;28;20261;-53
2023/11/01 09:19:57;;;;;;;2.33;1.50;;;18.10;56.10;;;;;;5070350;28;20438;-52
2023/11/01 09:22:22;;;;;;;1.93;1.43;;;18.20;56.30;;;;;;5070879;28;20196;-50
2023/11/01 09:24:48;;;;;;;2.10;1.37;;;18.50;54.90;;;;;;5070873;28;20284;-51
2023/11/01 09:27:13;;;;;;;2.77;1.43;;;18.70;54.30;;;;;;5068532;28;20639;-51
2023/11/01 09:29:39;;;;;;;3.07;1.17;;;19.00;53.40;;;;;;5069487;28;20196;-49
2023/11/01 09:32:05;;;;;;;2.30;1.37;;;19.30;51.80;;;;;;5069284;28;20559;-51
2023/11/01 09:34:31;;;;;;;2.00;1.00;;;19.50;51.30;;;;;;5070891;28;20191;-52
2023/11/01 09:36:57;;;;;;;1.47;1.00;;;19.50;51.00;;;;;;5055553;28;20916;-49
2023/11/01 09:39:23;;;;;;;2.80;2.10;;;19.50;50.10;;;;;;5058409;28;20553;-52
2023/11/01 09:41:54;;;;;;;2.50;2.00;;;19.60;50.30;;;;;;5057100;28;20218;-52
2023/11/01 09:44:19;;;;;;;2.47;1.50;;;19.80;50.30;;;;;;5068177;28;20465;-49
2023/11/01 09:46:49;;;;;;;3.50;1.73;;;20.00;49.90;;;;;;5065859;28;20932;-52
2023/11/01 09:49:18;;;;;;;1.30;1.20;;;20.20;49.10;;;;;;5070084;28;20214;-48
2023/11/01 09:51:44;;;;;;;1.97;1.20;;;20.20;49.50;;;;;;5064521;28;20442;-47
2023/11/01 09:54:11;;;;;;;1.27;1.10;;;20.40;49.20;;;;;;5067671;28;20498;-48
2023/11/01 09:56:42;;;;;;;2.83;1.27;;;20.50;49.30;;;;;;5067004;28;20450;-50
2023/11/01 09:59:08;;;;;;;1.23;0.93;;;20.60;49.90;;;;;;5064069;28;20465;-49
2023/11/01 10:01:36;;;;;;;1.10;1.00;;;20.70;48.40;;;;;;5067104;28;20969;-48
2023/11/01 10:04:02;;;;;;;2.17;1.07;;;20.90;47.70;;;;;;5060982;28;20481;-50
2023/11/01 10:06:28;;;;;;;1.17;1.07;;;21.00;47.60;;;;;;5065571;28;20434;-52
2023/11/01 10:08:54;;;;;;;1.77;1.27;;;21.10;47.30;;;;;;5068894;28;20210;-50
2023/11/01 10:11:21;;;;;;;1.90;1.30;;;21.10;47.90;;;;;;5062062;28;20454;-50
2023/11/01 10:13:47;;;;;;;1.10;1.00;;;21.20;47.50;;;;;;5062716;28;20516;-51
2023/11/01 10:16:13;;;;;;;2.30;0.93;;;21.40;47.50;;;;;;5064202;28;20529;-51
2023/11/01 10:18:39;;;;;;;3.53;1.40;;;21.40;46.30;;;;;;5068283;28;20477;-51
2023/11/01 10:21:05;;;;;;;0.77;0.70;;;21.40;45.70;;;;;;5064549;28;20812;-52
2023/11/01 10:23:31;;;;;;;2.13;1.30;;;21.50;46.40;;;;;;5067745;28;20454;-50
2023/11/01 10:25:56;;;;;;;1.40;1.30;;;21.70;46.60;;;;;;5065886;28;20219;-53
2023/11/01 10:28:23;;;;;;;6.97;1.10;;;21.70;46.40;;;;;;5056339;28;20204;-50
2023/11/01 10:30:49;;;;;;;4.40;1.47;;;21.90;46.90;;;;;;5060556;28;20228;-49
2023/11/01 10:33:18;;;;;;;1.70;0.97;;;21.70;45.70;;;;;;5065400;28;20442;-50
2023/11/01 10:36:01;;;;;;;1.20;1.10;;;21.50;46.00;;;;;;5055942;28;20184;-51
2023/11/01 10:38:28;;;;;;;1.10;0.90;;;21.70;46.30;;;;;;5062125;28;20896;-53
2023/11/01 10:40:57;;;;;;;1.63;0.80;;;21.70;46.70;;;;;;5063115;28;20438;-53
2023/11/01 10:43:27;;;;;;;2.00;1.07;;;22.00;46.30;;;;;;5063701;28;20533;-50
2023/11/01 10:45:57;;;;;;;3.30;1.13;;;22.10;45.30;;;;;;5063298;28;20885;-51
2023/11/01 10:48:24;;;;;;;1.67;1.00;;;22.30;44.80;;;;;;5066785;28;20971;-49
2023/11/01 10:50:52;;;;;;;1.23;0.90;;;22.50;45.20;;;;;;5057376;28;20446;-49
2023/11/01 10:53:22;;;;;;;2.37;1.20;;;22.40;44.60;;;;;;5056226;28;20464;-50
2023/11/01 10:55:52;;;;;;;1.27;0.90;;;22.20;44.80;;;;;;5056246;28;20463;-52
2023/11/01 10:58:27;;;;;;;1.80;0.90;;;22.30;45.70;;;;;;5055736;28;20465;-50
2023/11/01 11:01:04;;;;;;;2.03;1.23;;;22.40;44.00;;;;;;5066330;28;20464;-51
2023/11/01 11:04:14;;;;;;;2.10;1.10;;;22.50;44.00;;;;;;5063263;28;20438;-53
2023/11/01 11:06:54;;;;;;;1.77;1.13;;;22.60;44.70;;;;;;5046063;28;20451;-52
2023/11/01 11:09:23;;;;;;;1.87;1.00;;;22.80;44.30;;;;;;5044670;28;20898;-50
2023/11/01 11:12:24;;;;;;;2.33;1.43;;;22.80;44.00;;;;;;5058518;28;20486;-53
2023/11/01 11:14:51;;;;;;;1.40;1.00;;;22.90;43.90;;;;;;5064907;28;20445;-51
2023/11/01 11:17:19;;;;;;;2.40;1.10;;;22.80;44.10;;;;;;5065439;28;20448;-53
2023/11/01 11:20:10;;;;;;;1.20;1.10;;;22.70;43.10;;;;;;5068226;28;20950;-53
2023/11/01 11:22:57;;;;;;;1.87;1.10;;;22.50;43.00;;;;;;5064582;28;20873;-54
2023/11/01 11:25:38;;;;;;;4.50;0.93;;;22.60;44.60;;;;;;5062979;28;20923;-52
2023/11/01 11:28:05;;;;;;;1.10;0.73;;;22.60;43.80;;;;;;5064555;28;20483;-52
2023/11/01 11:31:03;;;;;;;4.37;1.00;;;22.60;42.90;;;;;;5066602;28;20411;-50
2023/11/01 11:33:31;;;;;;;3.10;1.00;;;22.50;43.00;;;;;;5063540;28;20791;-55
2023/11/01 11:36:11;;;;;;;3.23;1.10;;;22.50;43.10;;;;;;5065624;28;20438;-53
2023/11/01 11:38:38;;;;;;;1.53;0.90;;;22.70;43.10;;;;;;5062673;28;20890;-55
2023/11/01 11:41:13;;;;;;;1.73;0.80;;;22.70;43.40;;;;;;5067975;28;20406;-52
2023/11/01 11:43:58;;;;;;;1.70;1.10;;;22.80;42.60;;;;;;5063795;28;20441;-50
2023/11/01 11:46:47;;;;;;;1.40;1.00;;;22.80;43.00;;;;;;5056513;28;20446;-51
2023/11/01 11:49:21;;;;;;;1.20;1.00;;;22.90;43.10;;;;;;5061317;28;20511;-51
2023/11/01 11:51:52;;;;;;;3.67;1.00;;;23.00;43.20;;;;;;5061581;28;20775;-51
2023/11/01 11:54:18;;;;;;;2.27;1.00;;;22.90;41.90;;;;;;5066441;28;20453;-52
2023/11/01 11:56:44;;;;;;;1.50;1.03;;;22.90;41.30;;;;;;5061192;28;20525;-52
2023/11/01 11:59:10;;;;;;;1.73;0.90;;;23.00;41.50;;;;;;5068340;28;20595;-51
2023/11/01 12:01:37;;;;;;;2.07;0.80;;;22.90;41.00;;;;;;5067349;28;20784;-53
2023/11/01 12:04:05;;;;;;;0.80;0.77;;;22.80;40.60;;;;;;5062679;28;20437;-51
2023/11/01 12:06:44;;;;;;;1.03;0.93;;;22.80;41.00;;;;;;5066918;28;21153;-53
2023/11/01 12:09:37;;;;;;;1.97;0.83;;;22.70;41.30;;;;;;5066987;28;20446;-52
2023/11/01 12:12:11;;;;;;;1.33;1.03;;;22.60;41.50;;;;;;5060637;28;20503;-52
2023/11/01 12:14:39;;;;;;;0.87;0.80;;;22.80;42.10;;;;;;5064928;28;20468;-55
2023/11/01 12:17:05;;;;;;;0.97;0.97;;;22.80;41.10;;;;;;5058257;28;20549;-53
2023/11/01 12:19:32;;;;;;;2.37;0.90;;;22.80;41.10;;;;;;5066757;28;20548;-52
2023/11/01 12:21:59;;;;;;;1.03;0.93;;;22.70;41.30;;;;;;5066600;28;20190;-50
2023/11/01 12:24:41;;;;;;;1.80;0.97;;;22.80;40.80;;;;;;5067375;28;20474;-51
2023/11/01 12:27:09;;;;;;;1.43;0.80;;;22.90;41.90;;;;;;5069828;28;20427;-52
2023/11/01 12:29:49;;;;;;;1.30;0.90;;;22.90;42.10;;;;;;5066603;28;20527;-53
2023/11/01 12:32:23;;;;;;;1.23;0.70;;;22.50;41.60;;;;;;5065496;28;20421;-55
2023/11/01 12:34:49;;;;;;;3.57;1.10;;;22.50;42.40;;;;;;5065337;28;20425;-50
2023/11/01 12:37:18;;;;;;;1.00;0.90;;;22.30;43.20;;;;;;5067722;28;20955;-52
2023/11/01 12:40:04;;;;;;;1.10;0.90;;;22.20;43.00;;;;;;5064657;28;20192;-54
2023/11/01 12:42:31;;;;;;;4.50;1.87;;;22.10;43.50;;;;;;5065500;28;20464;-54
2023/11/01 12:44:57;;;;;;;1.43;1.00;;;22.20;42.70;;;;;;5069867;28;20485;-50
2023/11/01 12:47:24;;;;;;;2.17;1.03;;;22.20;43.00;;;;;;5064160;28;20904;-51
2023/11/01 12:49:51;;;;;;;1.40;1.13;;;22.00;42.70;;;;;;5063730;28;20495;-51